Salten — LMFM — position and weather

sailwx.info

Track history (hours):
 
Tides and Currents Weather Stations Pressure Air Temp Water Temp Dewpoint Dewpoint Depression Visibility Wind Speed Wind Dir Waves Ship Positions

Salten

Last reported at 2015-Feb-26 16:33 UTC. Time now 2015-Feb-26 23:21 UTC.
Position N 67°24' E 014°26'.

Length 41 m; draft 1.5 m.

Type: High speed craft. MMSI: 259387000.

Date/timePositionNaut miles runAvg speedWind from/ knotsBaromVisibWave heightAir tempDewpointWater temp
2015-Feb-26 16:33N 67°24' E 014°26'7 6.7
2015-Feb-26 15:33N 67°17' E 014°22'0 0.0
2015-Feb-26 14:33N 67°17' E 014°22'0 0.0
2015-Feb-26 13:33N 67°17' E 014°22'0 0.0
2015-Feb-26 12:33N 67°17' E 014°22'0 0.0
2015-Feb-26 11:33N 67°17' E 014°22'0 0.0
2015-Feb-26 10:33N 67°17' E 014°22'0 0.0
2015-Feb-26 09:33N 67°17' E 014°22'9 8.6
2015-Feb-26 08:33N 67°25' E 014°27'1 0.1
2015-Feb-25 16:33N 67°25' E 014°27'8 7.7
2015-Feb-25 15:33N 67°17' E 014°22'0 0.0
2015-Feb-25 14:33N 67°17' E 014°22'0 0.0
2015-Feb-25 13:33N 67°17' E 014°22'0 0.0
2015-Feb-25 12:33N 67°17' E 014°22'0 0.0
2015-Feb-25 11:33N 67°17' E 014°22'1310.9
2015-Feb-25 10:22N 67°08' E 013°58'10 0.6
2015-Feb-24 16:05N 67°00' E 013°40'1119.2
2015-Feb-24 15:30N 67°07' E 014°03'1212.9
2015-Feb-24 14:33N 67°17' E 014°22'0 0.0
2015-Feb-24 13:33N 67°17' E 014°22'0 0.0
2015-Feb-24 12:33N 67°17' E 014°22'0 0.0
2015-Feb-24 11:33N 67°17' E 014°22'0 0.0
2015-Feb-24 10:33N 67°17' E 014°22'0 0.0
2015-Feb-24 09:33N 67°17' E 014°22'12 0.5
2015-Feb-23 10:05N 67°28' E 014°37'1222.6
2015-Feb-23 09:33N 67°17' E 014°23'1 0.0
2015-Feb-22 19:33N 67°17' E 014°22'0 0.3
2015-Feb-22 18:33N 67°17' E 014°22'6 0.2
2015-Feb-21 16:33N 67°22' E 014°29'6 5.6
2015-Feb-21 15:33N 67°17' E 014°22'0 0.0
2015-Feb-21 14:33N 67°17' E 014°22'0 0.0
2015-Feb-21 13:33N 67°17' E 014°22'0 0.0
2015-Feb-21 12:33N 67°17' E 014°22'0 0.0
2015-Feb-21 11:33N 67°17' E 014°22'1110.7
2015-Feb-21 10:33N 67°10' E 014°03'2 0.1
2015-Feb-20 15:32N 67°07' E 014°00'1313.3
2015-Feb-20 14:33N 67°17' E 014°22'0 0.1
2015-Feb-20 13:33N 67°17' E 014°22'0 0.0
2015-Feb-20 12:33N 67°17' E 014°22'0 0.0
2015-Feb-20 11:33N 67°17' E 014°22'1311.4
2015-Feb-20 10:25N 67°08' E 013°58'11 0.6
2015-Feb-19 16:05N 67°00' E 013°39'1222.1
2015-Feb-19 15:33N 67°07' E 014°03'1212.3
2015-Feb-19 14:33N 67°17' E 014°22'0 0.1
2015-Feb-19 13:33N 67°17' E 014°22'0 0.0
2015-Feb-19 12:33N 67°17' E 014°22'0 0.0
2015-Feb-19 11:33N 67°17' E 014°22'0 0.0
2015-Feb-19 10:33N 67°17' E 014°22'0 0.0
2015-Feb-19 09:33N 67°17' E 014°22'1111.2
2015-Feb-19 08:33N 67°28' E 014°32'4 0.3
2015-Feb-18 16:33N 67°24' E 014°26'7 7.4
2015-Feb-18 15:33N 67°17' E 014°22'0 0.0
2015-Feb-18 14:33N 67°17' E 014°22'0 0.0
2015-Feb-18 13:33N 67°17' E 014°22'0 0.0
2015-Feb-18 12:33N 67°17' E 014°22'0 0.0
2015-Feb-18 11:33N 67°17' E 014°22'8 7.6
2015-Feb-18 10:33N 67°12' E 014°08'57 3.7
2015-Feb-17 19:11N 66°24' E 012°49'5314.2
2015-Feb-17 15:27N 67°08' E 014°02'1213.4
2015-Feb-17 14:33N 67°17' E 014°22'0 0.0
2015-Feb-17 13:33N 67°17' E 014°22'0 0.0
2015-Feb-17 12:33N 67°17' E 014°22'0 0.0
2015-Feb-17 11:33N 67°17' E 014°22'0 0.0
2015-Feb-17 10:33N 67°17' E 014°22'0 0.0
2015-Feb-17 09:33N 67°17' E 014°22'4 0.2
2015-Feb-16 16:33N 67°21' E 014°23'  
Track history (hours):
 
Tides and Currents Weather Stations Pressure Air Temp Water Temp Dewpoint Dewpoint Depression Visibility Wind Speed Wind Dir Waves Ship Positions

Salten

Last reported at 2015-Feb-26 16:33 UTC. Time now 2015-Feb-26 23:21 UTC.
Position N 67°24' E 014°26'.

Length 41 m; draft 1.5 m.

Type: High speed craft. MMSI: 259387000.

Date/timePositionNaut miles runAvg speedWind from/ knotsBaromVisibWave heightAir tempDewpointWater temp
2015-Feb-26 16:33N 67°24' E 014°26'7 6.7
2015-Feb-26 15:33N 67°17' E 014°22'0 0.0
2015-Feb-26 14:33N 67°17' E 014°22'0 0.0
2015-Feb-26 13:33N 67°17' E 014°22'0 0.0
2015-Feb-26 12:33N 67°17' E 014°22'0 0.0
2015-Feb-26 11:33N 67°17' E 014°22'0 0.0
2015-Feb-26 10:33N 67°17' E 014°22'0 0.0
2015-Feb-26 09:33N 67°17' E 014°22'9 8.6
2015-Feb-26 08:33N 67°25' E 014°27'1 0.1
2015-Feb-25 16:33N 67°25' E 014°27'8 7.7
2015-Feb-25 15:33N 67°17' E 014°22'0 0.0
2015-Feb-25 14:33N 67°17' E 014°22'0 0.0
2015-Feb-25 13:33N 67°17' E 014°22'0 0.0
2015-Feb-25 12:33N 67°17' E 014°22'0 0.0
2015-Feb-25 11:33N 67°17' E 014°22'1310.9
2015-Feb-25 10:22N 67°08' E 013°58'10 0.6
2015-Feb-24 16:05N 67°00' E 013°40'1119.2
2015-Feb-24 15:30N 67°07' E 014°03'1212.9
2015-Feb-24 14:33N 67°17' E 014°22'0 0.0
2015-Feb-24 13:33N 67°17' E 014°22'0 0.0
2015-Feb-24 12:33N 67°17' E 014°22'0 0.0
2015-Feb-24 11:33N 67°17' E 014°22'0 0.0
2015-Feb-24 10:33N 67°17' E 014°22'0 0.0
2015-Feb-24 09:33N 67°17' E 014°22'12 0.5
2015-Feb-23 10:05N 67°28' E 014°37'1222.6
2015-Feb-23 09:33N 67°17' E 014°23'1 0.0
2015-Feb-22 19:33N 67°17' E 014°22'0 0.3
2015-Feb-22 18:33N 67°17' E 014°22'6 0.2
2015-Feb-21 16:33N 67°22' E 014°29'6 5.6
2015-Feb-21 15:33N 67°17' E 014°22'0 0.0
2015-Feb-21 14:33N 67°17' E 014°22'0 0.0
2015-Feb-21 13:33N 67°17' E 014°22'0 0.0
2015-Feb-21 12:33N 67°17' E 014°22'0 0.0
2015-Feb-21 11:33N 67°17' E 014°22'1110.7
2015-Feb-21 10:33N 67°10' E 014°03'2 0.1
2015-Feb-20 15:32N 67°07' E 014°00'1313.3
2015-Feb-20 14:33N 67°17' E 014°22'0 0.1
2015-Feb-20 13:33N 67°17' E 014°22'0 0.0
2015-Feb-20 12:33N 67°17' E 014°22'0 0.0
2015-Feb-20 11:33N 67°17' E 014°22'1311.4
2015-Feb-20 10:25N 67°08' E 013°58'11 0.6
2015-Feb-19 16:05N 67°00' E 013°39'1222.1
2015-Feb-19 15:33N 67°07' E 014°03'1212.3
2015-Feb-19 14:33N 67°17' E 014°22'0 0.1
2015-Feb-19 13:33N 67°17' E 014°22'0 0.0
2015-Feb-19 12:33N 67°17' E 014°22'0 0.0
2015-Feb-19 11:33N 67°17' E 014°22'0 0.0
2015-Feb-19 10:33N 67°17' E 014°22'0 0.0
2015-Feb-19 09:33N 67°17' E 014°22'1111.2
2015-Feb-19 08:33N 67°28' E 014°32'4 0.3
2015-Feb-18 16:33N 67°24' E 014°26'7 7.4
2015-Feb-18 15:33N 67°17' E 014°22'0 0.0
2015-Feb-18 14:33N 67°17' E 014°22'0 0.0
2015-Feb-18 13:33N 67°17' E 014°22'0 0.0
2015-Feb-18 12:33N 67°17' E 014°22'0 0.0
2015-Feb-18 11:33N 67°17' E 014°22'8 7.6
2015-Feb-18 10:33N 67°12' E 014°08'57 3.7
2015-Feb-17 19:11N 66°24' E 012°49'5314.2
2015-Feb-17 15:27N 67°08' E 014°02'1213.4
2015-Feb-17 14:33N 67°17' E 014°22'0 0.0
2015-Feb-17 13:33N 67°17' E 014°22'0 0.0
2015-Feb-17 12:33N 67°17' E 014°22'0 0.0
2015-Feb-17 11:33N 67°17' E 014°22'0 0.0
2015-Feb-17 10:33N 67°17' E 014°22'0 0.0
2015-Feb-17 09:33N 67°17' E 014°22'4 0.2
2015-Feb-16 16:33N 67°21' E 014°23'  

Dump ship's entire track history